Bailey, Michigan
Current Conditions -  °F | °C
As of 8:35 PM on Thursday 18 Dec 2014 (Local Time) from KFFX Reporting Station
Overcast Overcast  
Wind Chill: 23°   Ceiling: 1900
Heat Index: 28°   Visibility: 10mi
Dew Point: 21°   Wind: 5mph
Humidity: 74%   Direction: 60°ENE
Pressure: 30.2"   Gusts: NA
Location:  43.28°N, 85.81°W
Report Text: KFFX 190135Z AUTO 06004KT 10SM OVC019 M02/M06 A3020 RMK AO2 T10211061
Loading
Personal Weather Stations






























Interactive Weather Map New forecast layout! Learn more

10-Day Weather Forecast

Advertisements
Track Severe Weather on mobile